sensor_id;sensor_type;location;lat;lon;timestamp;pressure;altitude;pressure_sealevel;temperature;humidity
65359;BME280;52491;45.900;6.346;2023-02-13T00:00:11;95368.56;;;23.01;22.14
65359;BME280;52491;45.900;6.346;2023-02-13T00:02:38;95374.13;;;22.99;22.12
65359;BME280;52491;45.900;6.346;2023-02-13T00:05:04;95367.16;;;22.98;22.04
65359;BME280;52491;45.900;6.346;2023-02-13T00:07:29;95377.00;;;22.98;22.04
65359;BME280;52491;45.900;6.346;2023-02-13T00:09:55;95376.41;;;22.96;22.08
65359;BME280;52491;45.900;6.346;2023-02-13T00:12:21;95380.06;;;22.95;22.08
65359;BME280;52491;45.900;6.346;2023-02-13T00:14:47;95374.94;;;22.93;22.12
65359;BME280;52491;45.900;6.346;2023-02-13T00:17:12;95368.00;;;22.92;22.08
65359;BME280;52491;45.900;6.346;2023-02-13T00:19:38;95369.88;;;22.92;22.11
65359;BME280;52491;45.900;6.346;2023-02-13T00:22:04;95379.47;;;22.93;22.00
65359;BME280;52491;45.900;6.346;2023-02-13T00:24:29;95375.38;;;22.90;21.90
65359;BME280;52491;45.900;6.346;2023-02-13T00:26:55;95370.28;;;22.89;21.94
65359;BME280;52491;45.900;6.346;2023-02-13T00:29:21;95375.63;;;22.89;21.89
65359;BME280;52491;45.900;6.346;2023-02-13T00:31:46;95375.81;;;22.87;21.95
65359;BME280;52491;45.900;6.346;2023-02-13T00:34:12;95378.91;;;22.84;21.80
65359;BME280;52491;45.900;6.346;2023-02-13T00:36:37;95377.28;;;22.83;21.81
65359;BME280;52491;45.900;6.346;2023-02-13T00:39:03;95379.94;;;22.83;21.80
65359;BME280;52491;45.900;6.346;2023-02-13T00:41:29;95386.09;;;22.84;21.68
65359;BME280;52491;45.900;6.346;2023-02-13T00:43:55;95374.84;;;22.82;21.89
65359;BME280;52491;45.900;6.346;2023-02-13T00:46:20;95379.34;;;22.81;21.81
65359;BME280;52491;45.900;6.346;2023-02-13T00:48:46;95380.38;;;22.80;21.72
65359;BME280;52491;45.900;6.346;2023-02-13T00:51:12;95380.38;;;22.80;21.73
65359;BME280;52491;45.900;6.346;2023-02-13T00:53:38;95381.41;;;22.79;21.80
65359;BME280;52491;45.900;6.346;2023-02-13T00:56:05;95377.94;;;22.78;21.65
65359;BME280;52491;45.900;6.346;2023-02-13T00:58:31;95379.78;;;22.78;21.59
65359;BME280;52491;45.900;6.346;2023-02-13T01:00:56;95380.81;;;22.77;21.68
65359;BME280;52491;45.900;6.346;2023-02-13T01:03:22;95379.97;;;22.76;21.63
65359;BME280;52491;45.900;6.346;2023-02-13T01:05:49;95379.16;;;22.76;21.63
65359;BME280;52491;45.900;6.346;2023-02-13T01:08:16;95382.88;;;22.75;21.59
65359;BME280;52491;45.900;6.346;2023-02-13T01:10:44;95381.03;;;22.75;21.70
65359;BME280;52491;45.900;6.346;2023-02-13T01:13:10;95383.88;;;22.74;21.63
65359;BME280;52491;45.900;6.346;2023-02-13T01:15:37;95376.75;;;22.74;21.60
65359;BME280;52491;45.900;6.346;2023-02-13T01:18:03;95375.91;;;22.74;21.67
65359;BME280;52491;45.900;6.346;2023-02-13T01:20:29;95379.41;;;22.74;21.51
65359;BME280;52491;45.900;6.346;2023-02-13T01:22:56;95388.38;;;22.73;21.48
65359;BME280;52491;45.900;6.346;2023-02-13T01:25:22;95381.47;;;22.72;21.49
65359;BME280;52491;45.900;6.346;2023-02-13T01:27:47;95380.66;;;22.72;21.49
65359;BME280;52491;45.900;6.346;2023-02-13T01:32:40;95388.38;;;22.73;21.37
65359;BME280;52491;45.900;6.346;2023-02-13T01:35:07;95384.31;;;22.71;21.47
65359;BME280;52491;45.900;6.346;2023-02-13T01:37:33;95383.31;;;22.72;21.50
65359;BME280;52491;45.900;6.346;2023-02-13T01:39:58;95385.16;;;22.71;21.35
65359;BME280;52491;45.900;6.346;2023-02-13T01:42:27;95384.31;;;22.71;21.35
65359;BME280;52491;45.900;6.346;2023-02-13T01:44:58;95388.81;;;22.70;21.24
65359;BME280;52491;45.900;6.346;2023-02-13T01:47:37;95389.88;;;22.69;21.41
65359;BME280;52491;45.900;6.346;2023-02-13T01:53:53;95388.81;;;22.70;21.27
65359;BME280;52491;45.900;6.346;2023-02-13T01:55:49;95393.34;;;22.70;21.25
65359;BME280;52491;45.900;6.346;2023-02-13T01:58:20;95392.53;;;22.69;21.35
65359;BME280;52491;45.900;6.346;2023-02-13T02:00:47;95392.72;;;22.68;21.33
65359;BME280;52491;45.900;6.346;2023-02-13T02:03:36;95391.47;;;22.70;21.12
65359;BME280;52491;45.900;6.346;2023-02-13T02:06:03;95392.53;;;22.69;21.14
65359;BME280;52491;45.900;6.346;2023-02-13T02:08:30;95391.72;;;22.69;21.03
65359;BME280;52491;45.900;6.346;2023-02-13T02:11:04;95388.00;;;22.70;21.16
65359;BME280;52491;45.900;6.346;2023-02-13T02:13:31;95391.72;;;22.69;21.13
65359;BME280;52491;45.900;6.346;2023-02-13T02:15:57;95384.75;;;22.68;21.09
65359;BME280;52491;45.900;6.346;2023-02-13T02:18:23;95387.22;;;22.69;21.02
65359;BME280;52491;45.900;6.346;2023-02-13T02:21:05;95390.66;;;22.70;21.02
65359;BME280;52491;45.900;6.346;2023-02-13T02:24:03;95388.44;;;22.67;21.08
65359;BME280;52491;45.900;6.346;2023-02-13T02:45:18;95383.34;;;22.65;21.02
65359;BME280;52491;45.900;6.346;2023-02-13T02:56:17;95389.47;;;22.66;20.81
65359;BME280;52491;45.900;6.346;2023-02-13T03:01:35;95383.56;;;22.64;20.91
65359;BME280;52491;45.900;6.346;2023-02-13T03:07:15;95391.53;;;22.64;20.97
65359;BME280;52491;45.900;6.346;2023-02-13T03:09:59;95392.34;;;22.64;20.80
65359;BME280;52491;45.900;6.346;2023-02-13T03:12:50;95390.72;;;22.63;20.98
65359;BME280;52491;45.900;6.346;2023-02-13T03:15:39;95386.22;;;22.64;20.91
65359;BME280;52491;45.900;6.346;2023-02-13T03:18:26;95386.22;;;22.64;20.82
65359;BME280;52491;45.900;6.346;2023-02-13T03:21:18;95392.13;;;22.66;20.85
65359;BME280;52491;45.900;6.346;2023-02-13T03:24:11;95392.13;;;22.66;20.80
65359;BME280;52491;45.900;6.346;2023-02-13T03:26:49;95390.56;;;22.58;20.94
65359;BME280;52491;45.900;6.346;2023-02-13T03:29:35;95392.53;;;22.63;20.89
65359;BME280;52491;45.900;6.346;2023-02-13T03:38:19;95395.81;;;22.65;20.61
65359;BME280;52491;45.900;6.346;2023-02-13T03:40:50;95394.78;;;22.66;20.86
65359;BME280;52491;45.900;6.346;2023-02-13T03:43:44;95397.44;;;22.66;20.60
65359;BME280;52491;45.900;6.346;2023-02-13T03:46:12;95394.78;;;22.66;20.77
65359;BME280;52491;45.900;6.346;2023-02-13T03:48:40;95394.56;;;22.67;20.75
65359;BME280;52491;45.900;6.346;2023-02-13T03:54:40;95398.84;;;22.68;20.52
65359;BME280;52491;45.900;6.346;2023-02-13T03:57:26;95403.59;;;22.66;20.60
65359;BME280;52491;45.900;6.346;2023-02-13T04:00:14;95406.81;;;22.68;20.64
65359;BME280;52491;45.900;6.346;2023-02-13T04:02:50;95409.28;;;22.70;20.57
65359;BME280;52491;45.900;6.346;2023-02-13T04:05:21;95406.44;;;22.71;20.67
65359;BME280;52491;45.900;6.346;2023-02-13T04:07:49;95407.22;;;22.72;20.59
65359;BME280;52491;45.900;6.346;2023-02-13T04:10:16;95411.31;;;22.74;20.38
65359;BME280;52491;45.900;6.346;2023-02-13T04:15:40;95412.13;;;22.75;20.55
65359;BME280;52491;45.900;6.346;2023-02-13T04:20:35;95401.47;;;22.75;20.39
65359;BME280;52491;45.900;6.346;2023-02-13T04:23:08;95402.91;;;22.77;20.46
65359;BME280;52491;45.900;6.346;2023-02-13T04:25:36;95403.47;;;22.79;20.55
65359;BME280;52491;45.900;6.346;2023-02-13T04:28:03;95402.09;;;22.77;20.52
65359;BME280;52491;45.900;6.346;2023-02-13T04:30:28;95400.00;;;22.79;20.44
65359;BME280;52491;45.900;6.346;2023-02-13T04:32:54;95397.34;;;22.79;20.40
65359;BME280;52491;45.900;6.346;2023-02-13T04:35:20;95407.97;;;22.79;20.38
65359;BME280;52491;45.900;6.346;2023-02-13T04:37:45;95393.69;;;22.80;20.40
65359;BME280;52491;45.900;6.346;2023-02-13T04:40:11;95403.28;;;22.81;20.42
65359;BME280;52491;45.900;6.346;2023-02-13T04:42:37;95400.41;;;22.83;20.28
65359;BME280;52491;45.900;6.346;2023-02-13T04:45:03;95400.19;;;22.84;20.33
65359;BME280;52491;45.900;6.346;2023-02-13T04:47:28;95409.56;;;22.87;20.51
65359;BME280;52491;45.900;6.346;2023-02-13T04:49:54;95406.72;;;22.88;20.27
65359;BME280;52491;45.900;6.346;2023-02-13T04:52:19;95403.03;;;22.89;20.31
65359;BME280;52491;45.900;6.346;2023-02-13T04:54:45;95400.34;;;22.89;20.24
65359;BME280;52491;45.900;6.346;2023-02-13T04:57:11;95406.47;;;22.90;20.36
65359;BME280;52491;45.900;6.346;2023-02-13T04:59:36;95409.16;;;22.90;20.24
65359;BME280;52491;45.900;6.346;2023-02-13T05:02:02;95405.44;;;22.91;20.25
65359;BME280;52491;45.900;6.346;2023-02-13T05:04:28;95406.28;;;22.91;20.21
65359;BME280;52491;45.900;6.346;2023-02-13T05:06:54;95407.28;;;22.90;20.29
65359;BME280;52491;45.900;6.346;2023-02-13T05:09:19;95403.63;;;22.91;20.21
65359;BME280;52491;45.900;6.346;2023-02-13T05:11:45;95405.25;;;22.92;20.20
65359;BME280;52491;45.900;6.346;2023-02-13T05:14:11;95405.84;;;22.94;20.12
65359;BME280;52491;45.900;6.346;2023-02-13T05:16:37;95407.69;;;22.94;20.17
65359;BME280;52491;45.900;6.346;2023-02-13T05:19:03;95406.47;;;22.96;20.15
65359;BME280;52491;45.900;6.346;2023-02-13T05:21:28;95419.75;;;22.96;20.09
65359;BME280;52491;45.900;6.346;2023-02-13T05:24:12;95408.31;;;22.96;20.19
65359;BME280;52491;45.900;6.346;2023-02-13T05:26:38;95408.09;;;22.97;20.36
65359;BME280;52491;45.900;6.346;2023-02-13T05:29:03;95405.44;;;22.97;20.14
65359;BME280;52491;45.900;6.346;2023-02-13T05:31:52;95415.66;;;23.00;20.21
65359;BME280;52491;45.900;6.346;2023-02-13T05:34:23;95414.22;;;22.98;20.24
65359;BME280;52491;45.900;6.346;2023-02-13T05:36:49;95407.88;;;22.99;20.16
65359;BME280;52491;45.900;6.346;2023-02-13T05:39:15;95408.72;;;22.99;20.06
65359;BME280;52491;45.900;6.346;2023-02-13T05:41:42;95411.94;;;23.01;20.24
65359;BME280;52491;45.900;6.346;2023-02-13T05:44:08;95414.59;;;23.01;20.18
65359;BME280;52491;45.900;6.346;2023-02-13T05:46:35;95410.94;;;23.03;20.13
65359;BME280;52491;45.900;6.346;2023-02-13T05:49:01;95410.94;;;23.03;20.06
65359;BME280;52491;45.900;6.346;2023-02-13T05:51:26;95412.56;;;23.04;20.10
65359;BME280;52491;45.900;6.346;2023-02-13T05:53:52;95413.16;;;23.06;19.98
65359;BME280;52491;45.900;6.346;2023-02-13T05:58:43;95419.28;;;23.06;20.17
65359;BME280;52491;45.900;6.346;2023-02-13T06:01:09;95415.38;;;23.09;20.06
65359;BME280;52491;45.900;6.346;2023-02-13T06:03:35;95421.72;;;23.08;20.03
65359;BME280;52491;45.900;6.346;2023-02-13T06:06:01;95424.16;;;23.09;20.01
65359;BME280;52491;45.900;6.346;2023-02-13T06:08:27;95424.97;;;23.10;19.93
65359;BME280;52491;45.900;6.346;2023-02-13T06:10:53;95421.50;;;23.09;20.10
65359;BME280;52491;45.900;6.346;2023-02-13T06:13:19;95417.00;;;23.10;20.01
65359;BME280;52491;45.900;6.346;2023-02-13T06:15:44;95422.13;;;23.11;20.26
65359;BME280;52491;45.900;6.346;2023-02-13T06:18:10;95424.78;;;23.11;20.01
65359;BME280;52491;45.900;6.346;2023-02-13T06:20:36;95422.94;;;23.12;19.95
65359;BME280;52491;45.900;6.346;2023-02-13T06:23:02;95429.06;;;23.12;20.04
65359;BME280;52491;45.900;6.346;2023-02-13T06:25:28;95428.00;;;23.13;20.03
65359;BME280;52491;45.900;6.346;2023-02-13T06:27:54;95427.22;;;23.13;20.02
65359;BME280;52491;45.900;6.346;2023-02-13T06:30:20;95421.06;;;23.12;20.00
65359;BME280;52491;45.900;6.346;2023-02-13T06:32:47;95425.16;;;23.15;19.89
65359;BME280;52491;45.900;6.346;2023-02-13T06:35:13;95424.09;;;23.16;19.94
65359;BME280;52491;45.900;6.346;2023-02-13T06:37:39;95437.22;;;23.17;19.92
65359;BME280;52491;45.900;6.346;2023-02-13T06:40:06;95432.69;;;23.18;19.94
65359;BME280;52491;45.900;6.346;2023-02-13T06:42:32;95426.56;;;23.17;20.02
65359;BME280;52491;45.900;6.346;2023-02-13T06:44:58;95430.84;;;23.18;19.95
65359;BME280;52491;45.900;6.346;2023-02-13T06:47:23;95436.97;;;23.19;20.01
65359;BME280;52491;45.900;6.346;2023-02-13T06:49:49;95435.97;;;23.20;19.90
65359;BME280;52491;45.900;6.346;2023-02-13T06:52:15;95437.59;;;23.21;19.97
65359;BME280;52491;45.900;6.346;2023-02-13T06:54:40;95440.03;;;23.22;19.93
65359;BME280;52491;45.900;6.346;2023-02-13T06:57:06;95445.38;;;23.22;20.03
65359;BME280;52491;45.900;6.346;2023-02-13T06:59:32;95438.19;;;23.23;20.04
65359;BME280;52491;45.900;6.346;2023-02-13T07:01:57;95445.13;;;23.24;20.06
65359;BME280;52491;45.900;6.346;2023-02-13T07:04:23;95442.47;;;23.24;19.98
65359;BME280;52491;45.900;6.346;2023-02-13T07:06:49;95444.31;;;23.23;19.96
65359;BME280;52491;45.900;6.346;2023-02-13T07:09:14;95450.44;;;23.24;19.85
65359;BME280;52491;45.900;6.346;2023-02-13T07:11:40;95451.06;;;23.26;19.92
65359;BME280;52491;45.900;6.346;2023-02-13T07:14:07;95451.66;;;23.28;19.88
65359;BME280;52491;45.900;6.346;2023-02-13T07:16:33;95452.47;;;23.29;20.04
65359;BME280;52491;45.900;6.346;2023-02-13T07:18:58;95455.94;;;23.29;19.93
65359;BME280;52491;45.900;6.346;2023-02-13T07:21:24;95456.19;;;23.28;20.03
65359;BME280;52491;45.900;6.346;2023-02-13T07:23:50;95455.13;;;23.29;20.07
65359;BME280;52491;45.900;6.346;2023-02-13T07:26:18;95446.94;;;23.30;20.06
65359;BME280;52491;45.900;6.346;2023-02-13T07:28:44;95451.81;;;23.33;20.09
65359;BME280;52491;45.900;6.346;2023-02-13T07:31:10;95450.19;;;23.32;20.12
65359;BME280;52491;45.900;6.346;2023-02-13T07:33:35;95457.34;;;23.32;20.05
65359;BME280;52491;45.900;6.346;2023-02-13T07:36:01;95460.81;;;23.32;19.88
65359;BME280;52491;45.900;6.346;2023-02-13T07:38:28;95466.75;;;23.34;20.12
65359;BME280;52491;45.900;6.346;2023-02-13T07:41:00;95468.16;;;23.37;19.98
65359;BME280;52491;45.900;6.346;2023-02-13T07:43:27;95466.75;;;23.34;20.11
65359;BME280;52491;45.900;6.346;2023-02-13T07:45:52;95474.75;;;23.34;20.18
65359;BME280;52491;45.900;6.346;2023-02-13T07:48:23;95469.41;;;23.34;20.18
65359;BME280;52491;45.900;6.346;2023-02-13T07:50:51;95467.78;;;23.33;20.18
65359;BME280;52491;45.900;6.346;2023-02-13T07:53:16;95468.81;;;23.32;20.12
65359;BME280;52491;45.900;6.346;2023-02-13T07:55:42;95468.00;;;23.32;20.24
65359;BME280;52491;45.900;6.346;2023-02-13T07:58:08;95465.34;;;23.32;20.26
65359;BME280;52491;45.900;6.346;2023-02-13T08:00:33;95467.19;;;23.31;20.24
65359;BME280;52491;45.900;6.346;2023-02-13T08:03:00;95468.81;;;23.32;20.28
65359;BME280;52491;45.900;6.346;2023-02-13T08:05:27;95468.59;;;23.34;20.26
65359;BME280;52491;45.900;6.346;2023-02-13T08:07:53;95465.13;;;23.33;20.22
65359;BME280;52491;45.900;6.346;2023-02-13T08:10:19;95467.78;;;23.33;20.30
65359;BME280;52491;45.900;6.346;2023-02-13T08:13:04;95468.00;;;23.32;20.26
65359;BME280;52491;45.900;6.346;2023-02-13T08:15:31;95466.16;;;23.32;20.21
65359;BME280;52491;45.900;6.346;2023-02-13T08:17:57;95469.41;;;23.34;20.25
65359;BME280;52491;45.900;6.346;2023-02-13T08:20:23;95467.78;;;23.33;20.33
65359;BME280;52491;45.900;6.346;2023-02-13T08:22:49;95461.63;;;23.33;20.24
65359;BME280;52491;45.900;6.346;2023-02-13T08:25:15;95464.09;;;23.34;20.20
65359;BME280;52491;45.900;6.346;2023-02-13T08:27:41;95465.72;;;23.35;20.21
65359;BME280;52491;45.900;6.346;2023-02-13T08:30:08;95456.91;;;23.35;20.28
65359;BME280;52491;45.900;6.346;2023-02-13T08:32:33;95462.03;;;23.36;20.25
65359;BME280;52491;45.900;6.346;2023-02-13T08:34:59;95458.56;;;23.36;20.28
65359;BME280;52491;45.900;6.346;2023-02-13T08:37:25;95461.22;;;23.36;20.42
65359;BME280;52491;45.900;6.346;2023-02-13T08:39:51;95459.38;;;23.36;20.25
65359;BME280;52491;45.900;6.346;2023-02-13T08:42:16;95455.91;;;23.36;20.22
65359;BME280;52491;45.900;6.346;2023-02-13T08:44:42;95453.00;;;23.37;20.50
65359;BME280;52491;45.900;6.346;2023-02-13T08:47:08;95456.03;;;23.41;20.41
65359;BME280;52491;45.900;6.346;2023-02-13T08:49:34;95464.88;;;23.41;20.63
65359;BME280;52491;45.900;6.346;2023-02-13T08:52:00;95465.88;;;23.40;20.41
65359;BME280;52491;45.900;6.346;2023-02-13T08:54:26;95458.34;;;23.37;20.78
65359;BME280;52491;45.900;6.346;2023-02-13T08:56:53;95453.00;;;23.37;20.83
65359;BME280;52491;45.900;6.346;2023-02-13T08:59:19;95456.72;;;23.36;20.66
65359;BME280;52491;45.900;6.346;2023-02-13T09:01:45;95463.66;;;23.37;20.90
65359;BME280;52491;45.900;6.346;2023-02-13T09:04:10;95458.34;;;23.37;20.67
65359;BME280;52491;45.900;6.346;2023-02-13T09:06:37;95457.91;;;23.40;20.81
65359;BME280;52491;45.900;6.346;2023-02-13T09:09:04;95461.97;;;23.43;20.87
65359;BME280;52491;45.900;6.346;2023-02-13T09:11:30;95459.69;;;23.46;21.01
65359;BME280;52491;45.900;6.346;2023-02-13T09:13:57;95455.78;;;23.49;20.92
65359;BME280;52491;45.900;6.346;2023-02-13T09:16:23;95456.97;;;23.53;20.96
65359;BME280;52491;45.900;6.346;2023-02-13T09:18:50;95460.22;;;23.55;21.00
65359;BME280;52491;45.900;6.346;2023-02-13T09:21:19;95457.16;;;23.58;21.01
65359;BME280;52491;45.900;6.346;2023-02-13T09:23:47;95458.16;;;23.57;20.78
65359;BME280;52491;45.900;6.346;2023-02-13T09:26:14;95454.47;;;23.58;20.91
65359;BME280;52491;45.900;6.346;2023-02-13T09:28:41;95452.63;;;23.59;20.75
65359;BME280;52491;45.900;6.346;2023-02-13T09:31:10;95454.25;;;23.60;20.79
65359;BME280;52491;45.900;6.346;2023-02-13T09:33:37;95460.38;;;23.60;20.80
65359;BME280;52491;45.900;6.346;2023-02-13T09:36:07;95454.84;;;23.62;20.93
65359;BME280;52491;45.900;6.346;2023-02-13T09:38:35;95446.06;;;23.61;20.74
65359;BME280;52491;45.900;6.346;2023-02-13T09:41:06;95455.44;;;23.64;20.78
65359;BME280;52491;45.900;6.346;2023-02-13T09:43:48;95454.41;;;23.65;20.72
65359;BME280;52491;45.900;6.346;2023-02-13T09:46:30;95448.28;;;23.64;20.62
65359;BME280;52491;45.900;6.346;2023-02-13T09:48:59;95446.25;;;23.60;20.48
65359;BME280;52491;45.900;6.346;2023-02-13T09:51:26;95454.47;;;23.58;20.52
65359;BME280;52491;45.900;6.346;2023-02-13T09:53:59;95444.63;;;23.59;20.33
65359;BME280;52491;45.900;6.346;2023-02-13T09:57:06;95443.84;;;23.58;20.45
65359;BME280;52491;45.900;6.346;2023-02-13T09:59:41;95449.97;;;23.59;20.67
65359;BME280;52491;45.900;6.346;2023-02-13T10:22:21;95444.94;;;23.69;21.54
65359;BME280;52491;45.900;6.346;2023-02-13T10:24:51;95434.53;;;23.67;21.49
65359;BME280;52491;45.900;6.346;2023-02-13T10:27:27;95447.19;;;23.72;21.86
65359;BME280;52491;45.900;6.346;2023-02-13T10:29:59;95448.84;;;23.73;21.76
65359;BME280;52491;45.900;6.346;2023-02-13T10:32:42;95442.47;;;23.74;21.70
65359;BME280;52491;45.900;6.346;2023-02-13T10:35:30;95444.91;;;23.76;21.73
65359;BME280;52491;45.900;6.346;2023-02-13T10:37:58;95436.94;;;23.76;21.85
65359;BME280;52491;45.900;6.346;2023-02-13T10:40:32;95438.34;;;23.78;21.86
65359;BME280;52491;45.900;6.346;2023-02-13T10:43:08;95431.16;;;23.79;21.92
65359;BME280;52491;45.900;6.346;2023-02-13T10:58:36;95419.81;;;23.83;21.88
65359;BME280;52491;45.900;6.346;2023-02-13T11:03:38;95406.09;;;23.86;22.06
65359;BME280;52491;45.900;6.346;2023-02-13T11:06:07;95408.31;;;23.89;22.14
65359;BME280;52491;45.900;6.346;2023-02-13T11:08:45;95403.56;;;23.92;22.01
65359;BME280;52491;45.900;6.346;2023-02-13T11:11:32;95406.22;;;23.92;21.87
65359;BME280;52491;45.900;6.346;2023-02-13T11:16:56;95394.31;;;23.94;22.22
65359;BME280;52491;45.900;6.346;2023-02-13T11:22:42;95389.81;;;23.95;22.46
65359;BME280;52491;45.900;6.346;2023-02-13T11:24:52;95388.78;;;23.96;22.58
65359;BME280;52491;45.900;6.346;2023-02-13T11:27:24;95383.19;;;23.97;22.75
65359;BME280;52491;45.900;6.346;2023-02-13T11:30:00;95385.66;;;23.99;22.63
65359;BME280;52491;45.900;6.346;2023-02-13T11:32:29;95386.47;;;23.99;22.66
65359;BME280;52491;45.900;6.346;2023-02-13T11:34:56;95378.47;;;23.99;22.86
65359;BME280;52491;45.900;6.346;2023-02-13T11:37:25;95372.94;;;24.01;22.85
65359;BME280;52491;45.900;6.346;2023-02-13T11:39:57;95374.56;;;24.02;22.87
65359;BME280;52491;45.900;6.346;2023-02-13T11:42:36;95371.69;;;24.03;23.19
65359;BME280;52491;45.900;6.346;2023-02-13T11:45:20;95369.38;;;24.07;23.22
65359;BME280;52491;45.900;6.346;2023-02-13T11:47:48;95374.69;;;24.07;23.18
65359;BME280;52491;45.900;6.346;2023-02-13T11:50:27;95373.44;;;24.09;23.07
65359;BME280;52491;45.900;6.346;2023-02-13T11:52:58;95366.25;;;24.10;23.21
65359;BME280;52491;45.900;6.346;2023-02-13T11:55:31;95361.72;;;24.10;22.91
65359;BME280;52491;45.900;6.346;2023-02-13T12:00:37;95352.72;;;24.11;23.13
65359;BME280;52491;45.900;6.346;2023-02-13T12:03:27;95357.59;;;24.15;23.28
65359;BME280;52491;45.900;6.346;2023-02-13T12:06:14;95355.94;;;24.13;23.03
65359;BME280;52491;45.900;6.346;2023-02-13T12:08:44;95350.88;;;24.12;23.43
65359;BME280;52491;45.900;6.346;2023-02-13T12:11:38;95349.81;;;24.13;23.79
65359;BME280;52491;45.900;6.346;2023-02-13T12:14:10;95348.19;;;24.12;23.48
65359;BME280;52491;45.900;6.346;2023-02-13T12:16:48;95349.22;;;24.11;23.75
65359;BME280;52491;45.900;6.346;2023-02-13T12:19:22;95350.06;;;24.11;23.29
65359;BME280;52491;45.900;6.346;2023-02-13T12:28:02;95335.50;;;23.96;22.21
65359;BME280;52491;45.900;6.346;2023-02-13T12:31:04;95337.56;;;23.94;23.04
65359;BME280;52491;45.900;6.346;2023-02-13T12:36:25;95333.78;;;24.01;22.96
65359;BME280;52491;45.900;6.346;2023-02-13T12:39:12;95328.34;;;24.08;23.33
65359;BME280;52491;45.900;6.346;2023-02-13T12:41:49;95331.63;;;24.10;23.37
65359;BME280;52491;45.900;6.346;2023-02-13T12:47:42;95319.84;;;24.18;23.63
65359;BME280;52491;45.900;6.346;2023-02-13T12:53:17;95308.72;;;24.21;23.67
65359;BME280;52491;45.900;6.346;2023-02-13T12:58:40;95302.69;;;24.25;23.79
65359;BME280;52491;45.900;6.346;2023-02-13T13:01:19;95298.41;;;24.24;24.03
65359;BME280;52491;45.900;6.346;2023-02-13T13:06:54;95294.03;;;24.30;24.19
65359;BME280;52491;45.900;6.346;2023-02-13T13:15:11;95288.50;;;24.31;24.84
65359;BME280;52491;45.900;6.346;2023-02-13T13:17:45;95284.97;;;24.31;25.00
65359;BME280;52491;45.900;6.346;2023-02-13T13:23:33;95277.38;;;24.34;25.05
65359;BME280;52491;45.900;6.346;2023-02-13T13:26:13;95280.59;;;24.37;25.27
65359;BME280;52491;45.900;6.346;2023-02-13T13:28:42;95276.91;;;24.38;25.65
65359;BME280;52491;45.900;6.346;2023-02-13T13:31:11;95274.25;;;24.38;26.05
65359;BME280;52491;45.900;6.346;2023-02-13T13:33:39;95275.06;;;24.38;24.18
65359;BME280;52491;45.900;6.346;2023-02-13T13:49:10;95270.69;;;24.44;24.92
65359;BME280;52491;45.900;6.346;2023-02-13T13:51:42;95268.22;;;24.42;25.02
65359;BME280;52491;45.900;6.346;2023-02-13T14:05:00;95260.75;;;24.51;25.39
65359;BME280;52491;45.900;6.346;2023-02-13T14:07:36;95256.44;;;24.50;25.31
65359;BME280;52491;45.900;6.346;2023-02-13T14:10:04;95257.25;;;24.50;25.09
65359;BME280;52491;45.900;6.346;2023-02-13T14:14:58;95257.84;;;24.52;25.53
65359;BME280;52491;45.900;6.346;2023-02-13T14:22:46;95251.47;;;24.53;25.44
65359;BME280;52491;45.900;6.346;2023-02-13T14:25:26;95253.69;;;24.56;25.65
65359;BME280;52491;45.900;6.346;2023-02-13T14:28:01;95249.16;;;24.57;25.33
65359;BME280;52491;45.900;6.346;2023-02-13T14:30:35;95256.34;;;24.56;25.50
65359;BME280;52491;45.900;6.346;2023-02-13T14:33:06;95251.81;;;24.57;25.26
65359;BME280;52491;45.900;6.346;2023-02-13T14:35:35;95256.91;;;24.59;25.66
65359;BME280;52491;45.900;6.346;2023-02-13T14:38:06;95255.09;;;24.59;25.36
65359;BME280;52491;45.900;6.346;2023-02-13T14:40:50;95250.78;;;24.58;25.54
65359;BME280;52491;45.900;6.346;2023-02-13T14:43:25;95247.63;;;24.61;25.48
65359;BME280;52491;45.900;6.346;2023-02-13T14:45:57;95248.22;;;24.63;25.48
65359;BME280;52491;45.900;6.346;2023-02-13T14:48:35;95253.56;;;24.63;25.45
65359;BME280;52491;45.900;6.346;2023-02-13T14:51:02;95252.75;;;24.63;25.43
65359;BME280;52491;45.900;6.346;2023-02-13T14:53:39;95240.81;;;24.65;25.65
65359;BME280;52491;45.900;6.346;2023-02-13T14:56:14;95238.97;;;24.66;25.75
65359;BME280;52491;45.900;6.346;2023-02-13T14:58:52;95239.75;;;24.66;25.62
65359;BME280;52491;45.900;6.346;2023-02-13T15:01:32;95234.44;;;24.66;25.30
65359;BME280;52491;45.900;6.346;2023-02-13T15:04:14;95233.03;;;24.64;25.59
65359;BME280;52491;45.900;6.346;2023-02-13T15:06:42;95233.84;;;24.64;25.77
65359;BME280;52491;45.900;6.346;2023-02-13T15:09:36;95229.34;;;24.65;25.33
65359;BME280;52491;45.900;6.346;2023-02-13T15:12:21;95225.28;;;24.62;25.44
65359;BME280;52491;45.900;6.346;2023-02-13T15:14:47;95235.72;;;24.64;25.21
65359;BME280;52491;45.900;6.346;2023-02-13T15:17:20;95233.03;;;24.64;25.58
65359;BME280;52491;45.900;6.346;2023-02-13T15:19:51;95240.00;;;24.65;25.44
65359;BME280;52491;45.900;6.346;2023-02-13T15:22:31;95237.34;;;24.65;25.26
65359;BME280;52491;45.900;6.346;2023-02-13T15:24:57;95235.72;;;24.64;25.49
65359;BME280;52491;45.900;6.346;2023-02-13T15:27:28;95241.84;;;24.64;25.36
65359;BME280;52491;45.900;6.346;2023-02-13T15:30:13;95239.19;;;24.64;25.50
65359;BME280;52491;45.900;6.346;2023-02-13T15:32:42;95241.28;;;24.62;25.36
65359;BME280;52491;45.900;6.346;2023-02-13T15:35:25;95243.50;;;24.65;25.41
65359;BME280;52491;45.900;6.346;2023-02-13T15:37:52;95241.03;;;24.64;25.27
65359;BME280;52491;45.900;6.346;2023-02-13T15:40:30;95245.34;;;24.65;25.58
65359;BME280;52491;45.900;6.346;2023-02-13T15:42:57;95241.84;;;24.64;25.22
65359;BME280;52491;45.900;6.346;2023-02-13T15:45:26;95240.81;;;24.65;25.30
65359;BME280;52491;45.900;6.346;2023-02-13T15:47:53;95247.75;;;24.66;25.10
65359;BME280;52491;45.900;6.346;2023-02-13T15:50:34;95251.81;;;24.69;25.26
65359;BME280;52491;45.900;6.346;2023-02-13T15:53:03;95249.16;;;24.69;25.23
65359;BME280;52491;45.900;6.346;2023-02-13T15:55:32;95253.91;;;24.67;25.08
65359;BME280;52491;45.900;6.346;2023-02-13T15:57:59;95258.91;;;24.63;25.69